Albany International Airport Albany US
ICAO: KALB
IATA: ALB
Category: Medium
Scheduled Services: Yes

Elevation: 285 ft
TransAlt. 18000 ft.

Airport Communications:
APP/DEP:118.05
ATIS:120.45
CLNC DEL:127.5
GND:121.7
ARNG OPS:41
BURLINGTON RDO:122.2
TWR:119.5
UNICOM:122.95

KALB Zoom In..

If you have problems with the map follow the link
https://www.worldairports.se/pages/airport.php?
ICAO=KALB

Runways:

(A) RW 01 length 8500 ft width 150 ft
ILS 109.50 / hdg 11

(B) RW 10 length 7200 ft width 150 ft
---- / hdg 101

(C) RW 19 length 8500 ft width 150 ft
ILS 109.50 / hdg 191

(D) RW 28 length 7200 ft width 150 ft
---- / hdg 281

Location; KALB
Day. 14 / Time. 15.51 Zulu
* Altimeter: 29.43
* Temperature: 07° c. 44.6°f.
* Wind from: 340° Speed 03 kn.
Dewpoint: 06° c.
Visibility: 3/4 Statute Miles.
Clouds: Overcast 300 ft.
Conditions: Slight Drizzle.Conditions: Fog Patches.Conditions: Mist.Conditions: Fog Patches.

KALB 141551Z 34003KT 3/4SM R01/P6000FT -DZ BCFG BR OVC003 07/06 A2943 RMK AO2 TWR VIS 1 PRESFR SLP967 VIS S 1 1/4 BCFG ALQDS P0000 T00720056


Wind From 340°
Speed 03 kn.

 
 
jpsmedia worldairports.se 2019   terms of use